Time;durP1;ratioP1;P1;durP2;ratioP2;P2;SDS_P1;SDS_P2;PMS_P1;PMS_P2;Temp;Humidity;BMP_temperature;BMP_pressure;BME280_temperature;BME280_humidity;BME280_pressure;Samples;Min_cycle;Max_cycle;Signal;HPM_P1;HPM_P2
2022/07/30 00:01:53;;;;;;;7.28;4.97;;;21.80;63.40;;;;;;5032720;28;20082;-69
2022/07/30 00:04:19;;;;;;;9.55;4.60;;;21.70;64.20;;;;;;5033133;28;20025;-69
2022/07/30 00:06:45;;;;;;;8.98;4.40;;;21.60;65.30;;;;;;5033265;28;20029;-69
2022/07/30 00:09:10;;;;;;;7.82;4.95;;;21.60;65.80;;;;;;5032493;28;20032;-69
2022/07/30 00:11:36;;;;;;;7.07;5.18;;;21.50;66.70;;;;;;5033055;28;20037;-68
2022/07/30 00:14:02;;;;;;;7.93;4.50;;;21.50;67.30;;;;;;5032994;28;20021;-69
2022/07/30 00:16:27;;;;;;;5.40;4.38;;;21.50;68.10;;;;;;5033483;28;20049;-69
2022/07/30 00:18:53;;;;;;;5.30;4.78;;;21.40;68.20;;;;;;5032178;28;20475;-69
2022/07/30 00:21:19;;;;;;;6.47;4.80;;;21.30;68.90;;;;;;5033511;28;20099;-70
2022/07/30 00:23:44;;;;;;;6.05;4.55;;;21.40;69.50;;;;;;5033059;28;20049;-68
2022/07/30 00:26:10;;;;;;;5.57;4.95;;;21.20;69.40;;;;;;5032832;28;20056;-68
2022/07/30 00:28:36;;;;;;;7.38;5.00;;;21.30;69.90;;;;;;5031926;28;20368;-69
2022/07/30 00:31:01;;;;;;;8.52;4.93;;;21.20;70.60;;;;;;5032622;28;20025;-69
2022/07/30 00:33:27;;;;;;;6.55;4.85;;;21.10;70.90;;;;;;5032629;28;20026;-67
2022/07/30 00:35:53;;;;;;;8.35;5.40;;;21.10;71.50;;;;;;5030837;28;20033;-69
2022/07/30 00:38:18;;;;;;;5.90;4.75;;;21.00;72.10;;;;;;5031652;28;20030;-68
2022/07/30 00:40:46;;;;;;;7.68;5.80;;;21.10;72.60;;;;;;5032500;28;20434;-69
2022/07/30 00:43:16;;;;;;;6.97;5.93;;;21.00;74.00;;;;;;5014492;28;20022;-69
2022/07/30 00:45:43;;;;;;;7.03;5.43;;;20.90;75.30;;;;;;5032322;28;20032;-70
2022/07/30 00:48:13;;;;;;;7.10;5.65;;;20.80;75.90;;;;;;5031500;28;20029;-69
2022/07/30 00:50:39;;;;;;;8.13;5.78;;;20.70;76.10;;;;;;5014846;28;20396;-68
2022/07/30 00:53:05;;;;;;;7.47;5.97;;;20.60;77.30;;;;;;5032134;28;20083;-68
2022/07/30 00:55:32;;;;;;;10.02;6.35;;;20.50;76.90;;;;;;5032276;28;20029;-67
2022/07/30 00:57:57;;;;;;;6.22;5.35;;;20.50;77.60;;;;;;5031434;28;20396;-68
2022/07/30 01:00:23;;;;;;;7.22;5.57;;;20.50;77.80;;;;;;5032118;28;20021;-68
2022/07/30 01:02:49;;;;;;;5.82;4.97;;;20.50;77.60;;;;;;5031760;28;20029;-68
2022/07/30 01:05:15;;;;;;;8.20;5.93;;;20.50;77.60;;;;;;5031821;28;20084;-69
2022/07/30 01:07:41;;;;;;;6.65;5.90;;;20.40;78.40;;;;;;5031335;28;20060;-69
2022/07/30 01:10:10;;;;;;;6.70;5.50;;;20.30;79.10;;;;;;5014492;28;20026;-68
2022/07/30 01:12:36;;;;;;;7.93;6.00;;;20.20;79.00;;;;;;5031742;28;20105;-68
2022/07/30 01:15:05;;;;;;;6.28;5.68;;;20.20;78.90;;;;;;5013243;28;20021;-69
2022/07/30 01:17:31;;;;;;;11.18;5.90;;;20.20;78.80;;;;;;5030931;28;20491;-68
2022/07/30 01:20:04;;;;;;;6.47;5.55;;;20.20;78.80;;;;;;5031959;28;20036;-69
2022/07/30 01:22:42;;;;;;;9.38;6.30;;;20.20;79.10;;;;;;5032365;28;20021;-69
2022/07/30 01:25:20;;;;;;;6.85;5.68;;;20.20;78.70;;;;;;5032180;28;20026;-70
2022/07/30 01:27:57;;;;;;;8.77;5.70;;;20.20;78.90;;;;;;5013400;28;20022;-69
2022/07/30 01:30:26;;;;;;;9.00;6.20;;;20.20;78.70;;;;;;5013896;28;20026;-68
2022/07/30 01:32:54;;;;;;;8.63;5.85;;;20.20;78.60;;;;;;5031675;28;20105;-69
2022/07/30 01:35:22;;;;;;;9.80;5.65;;;20.10;78.60;;;;;;5030528;28;20033;-68
2022/07/30 01:37:50;;;;;;;7.47;5.30;;;20.10;79.00;;;;;;5030884;28;20061;-71
2022/07/30 01:40:17;;;;;;;6.97;5.65;;;20.00;79.40;;;;;;5031558;28;20021;-69
2022/07/30 01:42:44;;;;;;;11.85;6.03;;;20.10;79.60;;;;;;5031925;28;20106;-69
2022/07/30 01:45:11;;;;;;;9.15;5.70;;;20.00;79.30;;;;;;5031526;28;20022;-70
2022/07/30 01:47:39;;;;;;;6.97;5.95;;;20.00;79.60;;;;;;5030817;28;20028;-70
2022/07/30 01:50:12;;;;;;;8.25;5.78;;;20.00;79.30;;;;;;5031600;28;20100;-70
2022/07/30 01:52:40;;;;;;;9.25;6.00;;;20.00;79.80;;;;;;5031297;28;20030;-68
2022/07/30 01:55:09;;;;;;;6.22;5.50;;;19.90;80.00;;;;;;5031279;28;20139;-67
2022/07/30 01:57:36;;;;;;;7.30;5.57;;;20.00;80.00;;;;;;5030727;28;20030;-69
2022/07/30 02:00:05;;;;;;;8.02;6.00;;;20.00;80.00;;;;;;5031036;28;20025;-68
2022/07/30 02:02:31;;;;;;;7.13;6.05;;;20.00;79.90;;;;;;5031132;28;20034;-68
2022/07/30 02:04:57;;;;;;;6.10;5.50;;;19.90;80.00;;;;;;5031295;28;20071;-68
2022/07/30 02:07:30;;;;;;;9.77;6.22;;;19.90;80.10;;;;;;5030469;28;20026;-68
2022/07/30 02:10:06;;;;;;;7.75;6.07;;;19.90;80.20;;;;;;5031247;28;20018;-68
2022/07/30 02:12:35;;;;;;;7.95;5.80;;;19.90;80.20;;;;;;5031235;28;20044;-69
2022/07/30 02:15:13;;;;;;;10.65;6.10;;;19.90;80.30;;;;;;5031118;28;20053;-69
2022/07/30 02:17:44;;;;;;;8.63;6.10;;;19.70;80.40;;;;;;5030457;28;20064;-69
2022/07/30 02:20:12;;;;;;;8.80;6.45;;;19.70;80.80;;;;;;5031224;28;20021;-66
2022/07/30 02:22:42;;;;;;;8.88;6.82;;;19.70;80.80;;;;;;5031355;28;20108;-69
2022/07/30 02:25:09;;;;;;;8.52;6.88;;;19.80;80.60;;;;;;5032252;28;20069;-69
2022/07/30 02:27:39;;;;;;;8.45;6.70;;;19.70;80.70;;;;;;5034997;28;20403;-68
2022/07/30 02:30:05;;;;;;;11.13;6.28;;;19.70;80.60;;;;;;5036481;28;20112;-69
2022/07/30 02:32:36;;;;;;;8.48;6.85;;;19.80;80.50;;;;;;5034890;28;20080;-69
2022/07/30 02:35:09;;;;;;;8.48;6.80;;;19.70;80.30;;;;;;5033152;28;20490;-68
2022/07/30 02:37:35;;;;;;;9.90;6.13;;;19.70;80.20;;;;;;5034019;28;20546;-69
2022/07/30 02:40:01;;;;;;;7.32;6.07;;;19.70;79.90;;;;;;5016992;28;20034;-69
2022/07/30 02:42:28;;;;;;;7.70;6.75;;;19.70;80.10;;;;;;5035058;28;20029;-68
2022/07/30 02:44:57;;;;;;;8.50;6.82;;;19.60;80.40;;;;;;5034624;28;20068;-69
2022/07/30 02:47:25;;;;;;;9.45;6.40;;;19.60;80.50;;;;;;5034020;28;20025;-68
2022/07/30 02:49:52;;;;;;;7.70;6.22;;;19.60;80.50;;;;;;5035405;28;20047;-69
2022/07/30 02:52:19;;;;;;;7.80;6.32;;;19.60;80.50;;;;;;5034857;28;20260;-69
2022/07/30 02:54:47;;;;;;;10.60;6.60;;;;;;;;;;5034323;28;20402;-69
2022/07/30 02:57:14;;;;;;;8.55;5.95;;;19.80;79.70;;;;;;5034946;28;20088;-69
2022/07/30 02:59:40;;;;;;;8.95;6.13;;;19.80;79.70;;;;;;5034168;28;20458;-69
2022/07/30 03:02:08;;;;;;;10.13;6.38;;;19.70;79.90;;;;;;5034198;28;20072;-69
2022/07/30 03:04:36;;;;;;;6.72;6.00;;;19.70;79.80;;;;;;5034283;28;20018;-69
2022/07/30 03:07:02;;;;;;;11.90;6.65;;;19.80;79.90;;;;;;5033859;28;20101;-69
2022/07/30 03:09:29;;;;;;;7.88;5.72;;;19.80;79.80;;;;;;5033911;28;20021;-68
2022/07/30 03:11:56;;;;;;;7.25;6.53;;;19.80;79.50;;;;;;5034267;28;20487;-68
2022/07/30 03:14:21;;;;;;;8.68;6.60;;;19.80;79.30;;;;;;5033913;28;20032;-69
2022/07/30 03:16:57;;;;;;;7.53;6.28;;;19.80;79.20;;;;;;5034180;28;20105;-69
2022/07/30 03:19:26;;;;;;;9.25;6.05;;;19.80;79.30;;;;;;5033756;28;20586;-69
2022/07/30 03:21:55;;;;;;;8.50;6.75;;;19.80;79.30;;;;;;5033778;28;20022;-69
2022/07/30 03:24:23;;;;;;;7.78;5.93;;;19.80;79.20;;;;;;5034361;28;20037;-69
2022/07/30 03:26:51;;;;;;;7.75;6.07;;;19.80;79.20;;;;;;5033856;28;20045;-68
2022/07/30 03:29:18;;;;;;;8.82;6.95;;;19.80;79.00;;;;;;5032999;28;20028;-69
2022/07/30 03:31:43;;;;;;;11.48;7.25;;;19.80;78.90;;;;;;5033885;28;20080;-69
2022/07/30 03:34:10;;;;;;;8.93;6.78;;;19.70;79.20;;;;;;5032602;28;20514;-69
2022/07/30 03:36:38;;;;;;;13.20;7.35;;;19.70;79.40;;;;;;5032853;28;20057;-69
2022/07/30 03:39:06;;;;;;;8.65;7.00;;;19.60;79.60;;;;;;5015304;28;20033;-70
2022/07/30 03:41:32;;;;;;;7.90;6.80;;;19.50;80.00;;;;;;5033731;28;20033;-69
2022/07/30 03:43:58;;;;;;;9.00;7.88;;;19.50;80.30;;;;;;5034285;28;20565;-69
2022/07/30 03:46:25;;;;;;;10.05;8.10;;;19.50;80.40;;;;;;5033663;28;20029;-69
2022/07/30 03:48:52;;;;;;;11.32;7.15;;;19.40;80.70;;;;;;5032699;28;20083;-68
2022/07/30 03:51:17;;;;;;;10.18;7.53;;;19.40;80.70;;;;;;5015694;28;20030;-68
2022/07/30 03:53:44;;;;;;;9.52;7.90;;;19.50;80.30;;;;;;5016088;28;20124;-69
2022/07/30 03:56:13;;;;;;;8.18;7.35;;;19.50;80.20;;;;;;5033624;28;20040;-68
2022/07/30 03:58:38;;;;;;;10.98;7.78;;;19.40;80.30;;;;;;5032730;28;20079;-68
2022/07/30 04:01:04;;;;;;;9.35;7.80;;;19.40;80.30;;;;;;5034494;28;20033;-69
2022/07/30 04:03:31;;;;;;;8.40;7.22;;;19.40;80.40;;;;;;5033204;28;20025;-68
2022/07/30 04:05:57;;;;;;;9.63;6.80;;;19.40;80.40;;;;;;5033203;28;20021;-69
2022/07/30 04:08:23;;;;;;;9.32;7.47;;;19.50;80.20;;;;;;5032337;28;20029;-68
2022/07/30 04:10:49;;;;;;;7.07;6.32;;;19.50;80.20;;;;;;5033109;28;20116;-68
2022/07/30 04:13:15;;;;;;;11.93;7.50;;;19.40;80.50;;;;;;5032846;28;20029;-68
2022/07/30 04:15:54;;;;;;;9.13;7.25;;;19.50;80.10;;;;;;5032839;28;20025;-69
2022/07/30 04:18:21;;;;;;;8.98;6.55;;;19.50;79.40;;;;;;5032281;28;20056;-68
2022/07/30 04:20:49;;;;;;;10.55;6.95;;;19.50;79.40;;;;;;5032839;28;20479;-69
2022/07/30 04:23:15;;;;;;;10.50;7.30;;;19.50;79.20;;;;;;5033506;28;20112;-69
2022/07/30 04:25:42;;;;;;;9.50;6.85;;;19.60;79.00;;;;;;5032630;28;20080;-69
2022/07/30 04:28:10;;;;;;;10.93;6.95;;;19.60;79.00;;;;;;5013995;28;20049;-71
2022/07/30 04:30:36;;;;;;;8.18;6.60;;;19.60;78.80;;;;;;5032570;28;20495;-66
2022/07/30 04:33:04;;;;;;;6.95;6.15;;;19.60;78.50;;;;;;5032566;28;20083;-69
2022/07/30 04:35:32;;;;;;;7.97;6.30;;;19.60;78.20;;;;;;5031685;28;20026;-69
2022/07/30 04:37:59;;;;;;;8.73;5.90;;;19.60;78.10;;;;;;5013883;28;20112;-69
2022/07/30 04:40:24;;;;;;;7.13;6.20;;;19.50;78.10;;;;;;5032607;28;20026;-69
2022/07/30 04:42:50;;;;;;;9.82;6.90;;;19.50;78.00;;;;;;5032704;28;20029;-68
2022/07/30 04:45:19;;;;;;;8.07;6.63;;;19.60;77.50;;;;;;5032328;28;20018;-68
2022/07/30 04:47:45;;;;;;;7.05;6.35;;;19.60;77.40;;;;;;5013720;28;20028;-68
2022/07/30 04:50:12;;;;;;;9.98;6.15;;;19.60;77.70;;;;;;5032451;28;20029;-68
2022/07/30 04:52:39;;;;;;;7.75;6.50;;;19.60;77.90;;;;;;5032146;28;20021;-68
2022/07/30 04:55:06;;;;;;;10.90;6.50;;;19.60;78.40;;;;;;5031917;28;20367;-68
2022/07/30 04:57:36;;;;;;;8.75;7.03;;;19.50;78.80;;;;;;5031208;28;20065;-68
2022/07/30 05:00:04;;;;;;;7.28;6.50;;;19.60;79.50;;;;;;5032095;28;20036;-68
2022/07/30 05:02:31;;;;;;;10.63;6.68;;;19.60;79.60;;;;;;5031956;28;20037;-70
2022/07/30 05:04:57;;;;;;;11.45;6.80;;;19.60;79.70;;;;;;5031927;28;20029;-68
2022/07/30 05:07:24;;;;;;;9.30;7.63;;;19.60;80.00;;;;;;5031174;28;20104;-68
2022/07/30 05:09:50;;;;;;;9.30;7.05;;;19.50;80.40;;;;;;5031688;28;20440;-68
2022/07/30 05:12:16;;;;;;;7.45;6.75;;;19.50;81.20;;;;;;5031431;28;20064;-66
2022/07/30 05:14:41;;;;;;;9.93;7.45;;;19.40;80.90;;;;;;5031490;28;20108;-68
2022/07/30 05:17:07;;;;;;;7.85;7.00;;;19.40;81.60;;;;;;5030850;28;20511;-69
2022/07/30 05:19:33;;;;;;;10.20;7.60;;;19.50;81.10;;;;;;5032156;28;20167;-69
2022/07/30 05:21:58;;;;;;;10.50;7.50;;;19.50;81.10;;;;;;5031863;28;20036;-69
2022/07/30 05:24:24;;;;;;;11.52;7.00;;;19.50;81.60;;;;;;5032124;28;20025;-68
2022/07/30 05:26:50;;;;;;;13.65;7.68;;;19.60;80.80;;;;;;5031831;28;20087;-69
2022/07/30 05:29:16;;;;;;;8.18;6.82;;;19.70;81.20;;;;;;5030959;28;20037;-69
2022/07/30 05:31:41;;;;;;;10.60;7.05;;;19.60;81.40;;;;;;5031481;28;20022;-69
2022/07/30 05:34:07;;;;;;;8.88;6.55;;;19.60;81.20;;;;;;5029858;28;20048;-69
2022/07/30 05:36:33;;;;;;;7.30;6.25;;;19.70;80.70;;;;;;5031654;28;20446;-68
2022/07/30 05:38:59;;;;;;;8.93;6.57;;;19.70;80.40;;;;;;5030791;28;20484;-68
2022/07/30 05:41:26;;;;;;;10.23;6.50;;;19.70;78.80;;;;;;5031412;28;20018;-67
2022/07/30 05:43:52;;;;;;;8.52;6.18;;;19.80;79.10;;;;;;5031386;28;20367;-66
2022/07/30 05:46:18;;;;;;;10.32;6.25;;;19.90;79.10;;;;;;5031718;28;20048;-68
2022/07/30 05:48:43;;;;;;;7.85;5.97;;;20.00;78.40;;;;;;5031155;28;20026;-67
2022/07/30 05:51:09;;;;;;;8.68;6.15;;;20.00;76.80;;;;;;5031933;28;20550;-69
2022/07/30 05:53:35;;;;;;;7.93;6.28;;;20.20;77.10;;;;;;5055362;22;20057;-66
2022/07/30 05:56:00;;;;;;;7.85;5.53;;;20.40;75.60;;;;;;5030579;28;20120;-67
2022/07/30 05:58:26;;;;;;;8.05;5.65;;;20.40;75.80;;;;;;5030616;28;20021;-68
2022/07/30 06:00:51;;;;;;;8.23;5.75;;;20.50;74.90;;;;;;5033773;28;20029;-68
2022/07/30 06:03:17;;;;;;;9.07;6.50;;;20.60;75.20;;;;;;5035609;28;20018;-67
2022/07/30 06:05:43;;;;;;;8.35;6.10;;;20.60;74.80;;;;;;5034128;28;20021;-67
2022/07/30 06:08:09;;;;;;;13.45;5.68;;;20.60;74.00;;;;;;5034473;28;20495;-67
2022/07/30 06:10:35;;;;;;;8.38;5.07;;;20.60;73.50;;;;;;5035224;28;20061;-67
2022/07/30 06:13:00;;;;;;;68.65;47.50;;;20.70;73.20;;;;;;5035292;28;20030;-67
2022/07/30 06:15:26;;;;;;;9.25;6.30;;;20.80;73.50;;;;;;5035170;28;20532;-67
2022/07/30 06:17:52;;;;;;;9.02;5.63;;;20.80;72.40;;;;;;5034673;28;20025;-67
2022/07/30 06:20:18;;;;;;;10.45;5.95;;;20.70;72.90;;;;;;5035158;28;20025;-67
2022/07/30 06:22:44;;;;;;;8.25;5.18;;;20.60;72.30;;;;;;5033541;28;20053;-67
2022/07/30 06:25:10;;;;;;;9.02;5.05;;;20.80;72.90;;;;;;5034774;28;20467;-68
2022/07/30 06:27:36;;;;;;;12.32;6.07;;;20.90;72.20;;;;;;5034370;28;20026;-66
2022/07/30 06:30:07;;;;;;;7.10;5.13;;;20.90;71.40;;;;;;5034909;28;20057;-69
2022/07/30 06:32:34;;;;;;;7.13;5.32;;;21.00;71.70;;;;;;5034786;28;20029;-67
2022/07/30 06:35:00;;;;;;;11.48;5.80;;;21.10;71.40;;;;;;5032664;28;20129;-67
2022/07/30 06:37:26;;;;;;;12.15;5.53;;;21.20;71.20;;;;;;5033860;28;20104;-67
2022/07/30 06:39:52;;;;;;;7.72;5.43;;;21.20;70.70;;;;;;5034540;28;20402;-67
2022/07/30 06:42:17;;;;;;;7.82;5.43;;;21.20;70.80;;;;;;5034306;28;20033;-67
2022/07/30 06:44:43;;;;;;;8.55;5.25;;;21.30;70.60;;;;;;5034405;28;20029;-67
2022/07/30 06:47:09;;;;;;;10.52;5.78;;;21.30;69.90;;;;;;5033773;28;20025;-67
2022/07/30 06:49:35;;;;;;;10.82;5.97;;;21.20;70.50;;;;;;5034588;28;20369;-67
2022/07/30 06:52:01;;;;;;;10.02;6.43;;;21.30;70.50;;;;;;5034407;28;20083;-66
2022/07/30 06:54:27;;;;;;;6.78;5.85;;;21.30;70.60;;;;;;5034227;28;20041;-67
2022/07/30 06:56:53;;;;;;;9.35;6.00;;;21.20;70.30;;;;;;5034435;28;20491;-67
2022/07/30 06:59:18;;;;;;;9.60;5.35;;;21.30;70.40;;;;;;5034458;28;20041;-68
2022/07/30 07:01:44;;;;;;;6.00;5.13;;;21.30;68.00;;;;;;5036062;28;20443;-67
2022/07/30 07:04:10;;;;;;;6.38;5.43;;;21.40;68.30;;;;;;5034792;28;20036;-68
2022/07/30 07:06:35;;;;;;;9.45;5.95;;;21.50;68.90;;;;;;5035066;28;20104;-67
2022/07/30 07:09:01;;;;;;;161.07;93.60;;;21.70;68.40;;;;;;5033944;28;20030;-68
2022/07/30 07:11:27;;;;;;;18.58;9.73;;;21.80;68.50;;;;;;5017026;28;20021;-68
2022/07/30 07:13:53;;;;;;;9.82;6.15;;;22.00;67.60;;;;;;5034460;28;20061;-67
2022/07/30 07:16:24;;;;;;;12.77;5.95;;;22.00;66.60;;;;;;5034667;28;20085;-68
2022/07/30 07:18:51;;;;;;;294.33;159.48;;;22.00;66.80;;;;;;5033476;28;20404;-68
2022/07/30 07:21:17;;;;;;;132.80;69.00;;;21.90;67.20;;;;;;5033861;28;20029;-69
2022/07/30 07:23:43;;;;;;;10.43;5.60;;;22.00;67.00;;;;;;5033835;28;20032;-67
2022/07/30 07:26:09;;;;;;;32.53;19.02;;;21.70;67.30;;;;;;5033755;28;20017;-68
2022/07/30 07:28:35;;;;;;;41.90;20.00;;;21.60;67.90;;;;;;5033339;28;20121;-68
2022/07/30 07:31:01;;;;;;;14.63;8.38;;;21.60;68.20;;;;;;5033785;28;20092;-69
2022/07/30 07:33:27;;;;;;;7.57;5.95;;;21.50;68.20;;;;;;5032221;28;20140;-68
2022/07/30 07:35:54;;;;;;;9.98;7.00;;;21.30;69.10;;;;;;5032940;28;20053;-68
2022/07/30 07:38:20;;;;;;;9.98;5.40;;;21.20;69.60;;;;;;5015031;28;20037;-67
2022/07/30 07:40:46;;;;;;;7.25;5.97;;;21.30;69.90;;;;;;5033506;28;20029;-67
2022/07/30 07:43:13;;;;;;;11.18;6.07;;;21.30;69.30;;;;;;5033409;28;20025;-69
2022/07/30 07:45:42;;;;;;;11.05;6.45;;;21.20;69.30;;;;;;5033310;28;20399;-68
2022/07/30 07:48:08;;;;;;;6.35;5.70;;;21.30;69.20;;;;;;5032612;28;20049;-68
2022/07/30 07:50:34;;;;;;;11.43;6.28;;;21.30;69.00;;;;;;5033208;28;20064;-68
2022/07/30 07:53:00;;;;;;;28.48;14.38;;;21.40;69.40;;;;;;5033565;28;20041;-68
2022/07/30 07:55:26;;;;;;;10.57;6.63;;;21.50;68.90;;;;;;5033601;28;20542;-68
2022/07/30 07:57:51;;;;;;;395.60;240.90;;;21.60;68.70;;;;;;5033060;28;20033;-67
2022/07/30 08:00:17;;;;;;;10.77;6.95;;;21.70;68.30;;;;;;5033588;28;20033;-66
2022/07/30 08:02:43;;;;;;;9.48;6.15;;;21.60;68.50;;;;;;5033447;28;20022;-68
2022/07/30 08:05:11;;;;;;;10.98;6.18;;;21.60;68.40;;;;;;5033309;28;20030;-68
2022/07/30 08:07:37;;;;;;;10.43;6.80;;;21.60;68.40;;;;;;5032710;28;20029;-68
2022/07/30 08:10:04;;;;;;;6.15;5.38;;;21.50;68.70;;;;;;5033689;28;20443;-69
2022/07/30 08:12:30;;;;;;;10.57;6.20;;;21.60;68.50;;;;;;5033239;28;20037;-68
2022/07/30 08:14:55;;;;;;;12.25;6.13;;;21.60;68.20;;;;;;5032989;28;20068;-68
2022/07/30 08:17:21;;;;;;;9.68;7.03;;;21.60;68.30;;;;;;5032077;28;20029;-68
2022/07/30 08:19:46;;;;;;;42.67;25.25;;;21.70;67.90;;;;;;5015150;28;20446;-68
2022/07/30 08:22:12;;;;;;;28.35;16.08;;;21.70;68.00;;;;;;5032923;28;20075;-68
2022/07/30 08:24:38;;;;;;;11.15;7.03;;;21.50;68.50;;;;;;5032502;28;20045;-68
2022/07/30 08:27:04;;;;;;;9.48;6.63;;;21.50;69.00;;;;;;5032311;28;20543;-67
2022/07/30 08:29:29;;;;;;;9.75;6.63;;;21.50;68.80;;;;;;5032362;28;20387;-68
2022/07/30 08:31:55;;;;;;;10.77;7.65;;;21.60;68.60;;;;;;5015093;28;20026;-68
2022/07/30 08:34:21;;;;;;;9.90;6.35;;;21.70;68.30;;;;;;5031320;28;20037;-68
2022/07/30 08:36:47;;;;;;;11.77;6.97;;;21.70;67.90;;;;;;5032622;28;20037;-69
2022/07/30 08:39:12;;;;;;;29.27;18.08;;;21.60;68.10;;;;;;5031706;28;20025;-67
2022/07/30 08:41:40;;;;;;;24.13;12.70;;;21.70;67.60;;;;;;5032483;28;20069;-67
2022/07/30 08:44:09;;;;;;;9.70;6.45;;;21.60;67.50;;;;;;5032891;28;20021;-68
2022/07/30 08:47:20;;;;;;;8.50;6.60;;;21.60;67.10;;;;;;5032433;28;20036;-70
2022/07/30 08:50:20;;;;;;;9.93;6.30;;;21.60;66.90;;;;;;4954162;28;20040;-69
2022/07/30 08:53:09;;;;;;;9.73;6.32;;;21.70;66.70;;;;;;5023974;28;20492;-69
2022/07/30 08:56:02;;;;;;;11.93;6.70;;;21.80;66.30;;;;;;5032378;28;20459;-69
2022/07/30 08:58:29;;;;;;;8.82;6.68;;;21.80;66.20;;;;;;5031383;28;20108;-68
2022/07/30 09:00:55;;;;;;;13.18;7.28;;;21.80;66.20;;;;;;5031930;28;20498;-69
2022/07/30 09:03:21;;;;;;;11.20;6.85;;;21.80;66.30;;;;;;5031939;28;20131;-68
2022/07/30 09:05:47;;;;;;;6.78;6.07;;;21.60;66.30;;;;;;5031826;28;20018;-68
2022/07/30 09:08:13;;;;;;;10.98;6.95;;;;;;;;;;5031066;28;20033;-68
2022/07/30 09:10:40;;;;;;;7.85;6.47;;;;;;;;;;5031563;28;20026;-68
2022/07/30 09:13:21;;;;;;;10.98;7.05;;;;;;;;;;5031617;28;20557;-68
2022/07/30 09:15:47;;;;;;;8.88;6.95;;;;;;;;;;5031562;28;20112;-69
2022/07/30 09:18:13;;;;;;;8.80;6.10;;;;;;;;;;5031066;28;20068;-69
2022/07/30 09:20:39;;;;;;;7.90;6.30;;;;;;;;;;5031817;28;20021;-67
2022/07/30 09:23:06;;;;;;;8.02;5.47;;;;;;;;;;5030152;28;20030;-68
2022/07/30 09:25:36;;;;;;;6.60;5.32;;;;;;;;;;5031595;28;20503;-68
2022/07/30 09:28:02;;;;;;;7.75;5.03;;;;;;;;;;5030761;28;20402;-67
2022/07/30 09:30:46;;;;;;;6.45;4.90;;;;;;;;;;5031556;28;20033;-68
2022/07/30 09:33:12;;;;;;;10.00;5.78;;;;;;;;;;5031586;28;20025;-68
2022/07/30 09:35:39;;;;;;;7.75;4.97;;;;;;;;;;5029471;28;20379;-68
2022/07/30 09:38:06;;;;;;;417.33;309.88;;;;;;;;;;5030718;28;20034;-67
2022/07/30 09:40:32;;;;;;;70.75;41.83;;;;;;;;;;5030035;28;20398;-68
2022/07/30 09:43:13;;;;;;;37.22;20.23;;;;;;;;;;5031442;28;20033;-69
2022/07/30 09:46:51;;;;;;;12.50;6.10;;;;;;;;;;5030517;28;20021;-68
2022/07/30 09:49:40;;;;;;;8.73;6.47;;;;;;;;;;5019768;28;20523;-69
2022/07/30 09:52:04;;;;;;;13.13;6.72;;;;;;;;;;5030275;28;20124;-67
2022/07/30 09:54:49;;;;;;;8.45;6.28;;;;;;;;;;5031343;28;20079;-67
2022/07/30 09:57:15;;;;;;;11.82;7.22;;;;;;;;;;5031108;28;20548;-68
2022/07/30 09:59:41;;;;;;;9.05;7.07;;;;;;;;;;5031656;28;20065;-68
2022/07/30 10:02:07;;;;;;;12.30;6.68;;;;;;;;;;5030049;28;20135;-68
2022/07/30 10:04:33;;;;;;;8.05;6.68;;;;;;;;;;5031295;28;20021;-69
2022/07/30 10:07:00;;;;;;;10.90;6.60;;;;;;;;;;5031129;28;20028;-67
2022/07/30 10:09:26;;;;;;;8.75;6.22;;;;;;;;;;5030900;28;20471;-68
2022/07/30 10:11:53;;;;;;;11.32;7.07;;;;;;;;;;5031285;28;20033;-68
2022/07/30 10:14:20;;;;;;;12.00;6.88;;;;;;;;;;5031412;28;20030;-68
2022/07/30 10:16:47;;;;;;;9.18;6.40;;;;;;;;;;5031360;28;20033;-68
2022/07/30 10:19:13;;;;;;;10.38;6.70;;;;;;;;;;5030409;28;20056;-69
2022/07/30 10:21:39;;;;;;;9.07;6.18;;;;;;;;;;5030908;28;20025;-67
2022/07/30 10:24:05;;;;;;;8.15;5.88;;;;;;;;;;5031576;28;20025;-67
2022/07/30 10:26:34;;;;;;;10.98;5.82;;;;;;;;;;5031393;28;20025;-67
2022/07/30 10:29:01;;;;;;;12.68;6.90;;;;;;;;;;5030440;28;20083;-67
2022/07/30 10:31:27;;;;;;;10.73;6.18;;;;;;;;;;5031078;28;20044;-67
2022/07/30 10:33:53;;;;;;;16.20;8.63;;;;;;;;;;5029419;28;20022;-67
2022/07/30 10:36:20;;;;;;;16.52;10.30;;;;;;;;;;5030290;28;20026;-68
2022/07/30 10:38:47;;;;;;;43.25;20.67;;;;;;;;;;5030184;28;20026;-68
2022/07/30 10:41:12;;;;;;;10.65;6.35;;;;;;;;;;5030852;28;20021;-69
2022/07/30 10:43:38;;;;;;;9.38;6.35;;;;;;;;;;5031338;28;20361;-67
2022/07/30 10:46:14;;;;;;;7.97;5.93;;;;;;;;;;5031786;28;20072;-67
2022/07/30 10:48:40;;;;;;;9.13;5.63;;;;;;;;;;5033550;28;20026;-67
2022/07/30 10:51:06;;;;;;;10.32;6.10;;;;;;;;;;5034523;28;20022;-68
2022/07/30 10:53:32;;;;;;;8.75;5.45;;;;;;;;;;5034452;28;20444;-68
2022/07/30 10:56:14;;;;;;;8.32;5.72;;;;;;;;;;5034283;28;20049;-67
2022/07/30 10:58:58;;;;;;;11.00;5.97;;;;;;;;;;5034064;28;20022;-67
2022/07/30 11:01:24;;;;;;;9.65;6.28;;;;;;;;;;5034497;28;20049;-69
2022/07/30 11:04:09;;;;;;;8.10;5.50;;;;;;;;;;5034036;28;20025;-68
2022/07/30 11:06:35;;;;;;;7.45;5.63;;;;;;;;;;5034327;28;20549;-68
2022/07/30 11:09:02;;;;;;;8.15;5.85;;;;;;;;;;5033692;28;20038;-68
2022/07/30 11:11:31;;;;;;;7.90;5.50;;;;;;;;;;5032610;28;20021;-68
2022/07/30 11:13:57;;;;;;;6.30;5.22;;;;;;;;;;5034439;28;20025;-69
2022/07/30 11:16:24;;;;;;;10.85;5.47;;;;;;;;;;5034195;28;20025;-69
2022/07/30 11:19:16;;;;;;;8.10;5.10;;;;;;;;;;5033264;28;20037;-71
2022/07/30 11:21:43;;;;;;;8.52;4.95;;;;;;;;;;5034108;28;20053;-68
2022/07/30 11:24:45;;;;;;;9.60;5.40;;;;;;;;;;5034044;28;20017;-68
2022/07/30 11:27:30;;;;;;;6.97;5.30;;;;;;;;;;4953092;29;20106;-68
2022/07/30 11:29:56;;;;;;;8.57;5.28;;;;;;;;;;5012623;28;20033;-69
2022/07/30 11:32:24;;;;;;;49.03;27.08;;;;;;;;;;5034192;28;20114;-69
2022/07/30 11:34:51;;;;;;;28.80;15.00;;;;;;;;;;5032739;28;20116;-69
2022/07/30 11:37:17;;;;;;;57.83;27.80;;;;;;;;;;5033723;28;20029;-68
2022/07/30 11:39:53;;;;;;;50.00;22.70;;;;;;;;;;5034258;28;20017;-69
2022/07/30 11:42:25;;;;;;;12.57;6.53;;;;;;;;;;5034138;28;20037;-68
2022/07/30 11:44:51;;;;;;;8.93;5.18;;;;;;;;;;5034002;28;20021;-68
2022/07/30 11:47:18;;;;;;;8.52;5.20;;;;;;;;;;5032900;28;20030;-68
2022/07/30 11:49:46;;;;;;;9.27;5.30;;;;;;;;;;5033334;28;20047;-67
2022/07/30 11:52:12;;;;;;;7.70;5.18;;;;;;;;;;5033643;28;20033;-68
2022/07/30 11:54:53;;;;;;;9.27;4.95;;;;;;;;;;5056073;22;20050;-70
2022/07/30 11:57:20;;;;;;;8.77;5.32;;;;;;;;;;5031835;28;20034;-68
2022/07/30 11:59:52;;;;;;;8.70;5.32;;;;;;;;;;5032584;28;20056;-69
2022/07/30 12:02:19;;;;;;;4.97;4.47;;;;;;;;;;5031527;28;20430;-69
2022/07/30 12:04:46;;;;;;;7.63;4.80;;;;;;;;;;5032850;28;20013;-68
2022/07/30 12:07:11;;;;;;;7.20;4.28;;;;;;;;;;5032083;28;20029;-68
2022/07/30 12:09:37;;;;;;;8.35;4.10;;;;;;;;;;5032514;28;20022;-68
2022/07/30 12:12:22;;;;;;;6.75;4.15;;;;;;;;;;5032844;28;20033;-69
2022/07/30 12:14:48;;;;;;;10.32;4.32;;;;;;;;;;5032572;28;20037;-69
2022/07/30 12:17:14;;;;;;;6.25;3.65;;;;;;;;;;5031740;28;20029;-70
2022/07/30 12:19:44;;;;;;;7.68;3.97;;;;;;;;;;5032640;28;20029;-69
2022/07/30 12:22:10;;;;;;;7.15;3.63;;;;;;;;;;5032720;28;20051;-68
2022/07/30 12:24:36;;;;;;;6.72;3.72;;;;;;;;;;5032358;28;20021;-68
2022/07/30 12:27:06;;;;;;;6.05;3.60;;;;;;;;;;5032183;28;20398;-69
2022/07/30 12:29:33;;;;;;;7.38;4.07;;;;;;;;;;5032256;28;20048;-69
2022/07/30 12:32:00;;;;;;;5.93;4.00;;;;;;;;;;5032179;28;20072;-70
2022/07/30 12:34:26;;;;;;;7.10;3.80;;;;;;;;;;5030562;28;20372;-68
2022/07/30 12:36:53;;;;;;;10.32;5.60;;;;;;;;;;5032221;28;20053;-70
2022/07/30 12:39:20;;;;;;;27.30;14.15;;;;;;;;;;5031368;28;20029;-69
2022/07/30 12:41:47;;;;;;;8.15;4.20;;;;;;;;;;5031742;28;20035;-69
2022/07/30 12:44:32;;;;;;;8.48;4.47;;;;;;;;;;5031827;28;20037;-68
2022/07/30 12:46:58;;;;;;;6.00;4.15;;;;;;;;;;5031500;28;20101;-69
2022/07/30 12:49:28;;;;;;;5.55;3.70;;;;;;;;;;5031431;28;20022;-69
2022/07/30 12:51:54;;;;;;;7.80;4.30;;;;;;;;;;5032079;28;20030;-70
2022/07/30 12:54:21;;;;;;;5.55;4.35;;;;;;;;;;5031603;28;20499;-70
2022/07/30 12:56:58;;;;;;;6.63;4.03;;;;;;;;;;5032060;28;20029;-70
2022/07/30 12:59:24;;;;;;;8.13;4.10;;;;;;;;;;5013703;28;20492;-70
2022/07/30 13:01:52;;;;;;;8.18;4.10;;;;;;;;;;5031979;28;20484;-70
2022/07/30 13:04:18;;;;;;;6.30;3.75;;;;;;;;;;5031810;28;20024;-68
2022/07/30 13:06:44;;;;;;;8.23;4.30;;;;;;;;;;5031981;28;20033;-68
2022/07/30 13:09:20;;;;;;;5.32;3.70;;;;;;;;;;5030878;28;20056;-68
2022/07/30 13:11:46;;;;;;;16.83;4.53;;;;;;;;;;5031837;28;20490;-69
2022/07/30 13:14:15;;;;;;;6.80;4.30;;;;;;;;;;5031843;28;20025;-68
2022/07/30 13:16:41;;;;;;;5.38;4.43;;;;;;;;;;5031659;28;20041;-69
2022/07/30 13:19:08;;;;;;;9.10;4.20;;;;;;;;;;5031024;28;20042;-70
2022/07/30 13:21:34;;;;;;;8.27;4.55;;;;;;;;;;5031761;28;20022;-69
2022/07/30 13:24:00;;;;;;;8.55;4.25;;;;;;;;;;5032016;28;20028;-69